Time;durP1;ratioP1;P1;durP2;ratioP2;P2;SDS_P1;SDS_P2;PMS_P1;PMS_P2;Temp;Humidity;BMP_temperature;BMP_pressure;BME280_temperature;BME280_humidity;BME280_pressure;Samples;Min_cycle;Max_cycle;Signal;HPM_P1;HPM_P2
2022/09/10 00:01:22;;;;;;;1.87;1.67;;;15.60;99.90;;;;;;4998686;28;20245;-53
2022/09/10 00:03:53;;;;;;;2.60;1.50;;;15.60;99.90;;;;;;4994536;28;20681;-54
2022/09/10 00:06:24;;;;;;;2.90;1.73;;;15.60;99.90;;;;;;4994339;28;20225;-55
2022/09/10 00:08:55;;;;;;;1.70;1.60;;;15.60;99.90;;;;;;4994603;28;20682;-55
2022/09/10 00:11:25;;;;;;;1.53;1.43;;;15.60;99.90;;;;;;4994577;28;20226;-54
2022/09/10 00:13:56;;;;;;;1.50;1.40;;;15.60;99.90;;;;;;4994225;28;20229;-55
2022/09/10 00:16:24;;;;;;;2.97;1.40;;;15.50;99.90;;;;;;4994196;28;20224;-53
2022/09/10 00:18:52;;;;;;;2.13;1.60;;;15.60;99.90;;;;;;4994107;28;20233;-54
2022/09/10 00:21:21;;;;;;;1.60;1.40;;;15.60;99.90;;;;;;4999163;28;20241;-55
2022/09/10 00:23:49;;;;;;;2.47;1.60;;;15.70;99.90;;;;;;5005977;28;20229;-54
2022/09/10 00:26:20;;;;;;;2.03;1.67;;;15.60;99.90;;;;;;5013589;28;20237;-53
2022/09/10 00:28:51;;;;;;;1.87;1.50;;;15.60;99.90;;;;;;5013514;28;20217;-54
2022/09/10 00:31:20;;;;;;;2.10;1.60;;;15.70;99.90;;;;;;5012686;28;20735;-53
2022/09/10 00:33:49;;;;;;;2.17;1.70;;;15.70;99.90;;;;;;5013670;28;20708;-54
2022/09/10 00:36:20;;;;;;;5.67;2.17;;;15.70;99.90;;;;;;5003405;28;20229;-54
2022/09/10 00:38:49;;;;;;;4.40;2.03;;;15.70;99.90;;;;;;4993687;28;20226;-54
2022/09/10 00:41:19;;;;;;;2.80;1.80;;;15.70;99.90;;;;;;4993738;28;20230;-54
2022/09/10 00:43:57;;;;;;;5.93;1.73;;;15.70;99.90;;;;;;4992280;28;20230;-54
2022/09/10 00:46:36;;;;;;;1.47;1.30;;;15.70;99.90;;;;;;4993457;28;20234;-54
2022/09/10 00:49:13;;;;;;;2.73;1.60;;;15.60;99.90;;;;;;4993435;28;20245;-54
2022/09/10 00:51:42;;;;;;;2.70;1.50;;;15.60;99.90;;;;;;5001347;28;20758;-55
2022/09/10 00:54:10;;;;;;;2.43;1.77;;;15.60;99.90;;;;;;4997398;28;20218;-55
2022/09/10 00:56:39;;;;;;;3.07;1.80;;;15.60;99.90;;;;;;5028251;28;20217;-55
2022/09/10 00:59:10;;;;;;;1.60;1.50;;;15.60;99.90;;;;;;5010061;28;20228;-54
2022/09/10 01:01:39;;;;;;;4.00;1.73;;;15.70;99.90;;;;;;5027066;28;20251;-54
2022/09/10 01:04:09;;;;;;;2.47;1.80;;;15.60;99.90;;;;;;5013119;28;20256;-55
2022/09/10 01:06:39;;;;;;;2.97;1.77;;;15.60;99.90;;;;;;5000437;28;20253;-54
2022/09/10 01:09:08;;;;;;;4.07;1.80;;;15.60;99.90;;;;;;4993556;28;20226;-54
2022/09/10 01:11:52;;;;;;;2.33;1.67;;;15.60;99.90;;;;;;4993458;28;20214;-55
2022/09/10 01:14:36;;;;;;;2.07;1.63;;;15.60;99.90;;;;;;5008453;28;20237;-54
2022/09/10 01:17:14;;;;;;;3.63;1.90;;;15.60;99.90;;;;;;4993346;28;20221;-55
2022/09/10 01:20:16;;;;;;;2.40;1.57;;;15.60;99.90;;;;;;4998688;28;20234;-54
2022/09/10 01:23:07;;;;;;;2.47;1.70;;;15.60;99.90;;;;;;5000990;28;20279;-54
2022/09/10 01:25:43;;;;;;;2.97;1.50;;;15.60;99.90;;;;;;5012760;28;20224;-55
2022/09/10 01:28:18;;;;;;;1.90;1.50;;;15.60;99.90;;;;;;5028117;28;20320;-54
2022/09/10 01:30:50;;;;;;;2.80;1.80;;;15.50;99.90;;;;;;5027020;28;20236;-54
2022/09/10 01:33:25;;;;;;;2.40;1.50;;;15.50;99.90;;;;;;5011796;28;20234;-54
2022/09/10 01:35:56;;;;;;;1.93;1.57;;;15.50;99.90;;;;;;5006425;28;20233;-54
2022/09/10 01:38:30;;;;;;;2.33;1.50;;;15.50;99.90;;;;;;4991656;28;20260;-55
2022/09/10 01:40:59;;;;;;;3.10;1.50;;;15.50;99.90;;;;;;4993344;28;20627;-55
2022/09/10 01:43:33;;;;;;;1.70;1.60;;;15.50;99.90;;;;;;4991777;28;20230;-54
2022/09/10 01:46:18;;;;;;;2.30;1.70;;;15.50;99.90;;;;;;4991895;28;20230;-55
2022/09/10 01:49:03;;;;;;;2.27;1.60;;;15.50;99.90;;;;;;4991381;28;20237;-54
2022/09/10 01:51:43;;;;;;;2.90;1.80;;;15.40;99.90;;;;;;5002114;28;20259;-55
2022/09/10 01:54:23;;;;;;;2.73;1.37;;;15.50;99.90;;;;;;5012264;28;20688;-54
2022/09/10 01:57:03;;;;;;;3.57;1.83;;;15.50;99.90;;;;;;4987832;28;20610;-55
2022/09/10 01:59:38;;;;;;;4.03;1.63;;;15.50;99.90;;;;;;4985123;28;20225;-54
2022/09/10 02:02:12;;;;;;;3.00;1.50;;;15.50;99.90;;;;;;4995141;28;20308;-53
2022/09/10 02:04:42;;;;;;;3.07;1.93;;;15.50;99.90;;;;;;4996871;28;20253;-55
2022/09/10 02:07:14;;;;;;;3.20;1.80;;;15.50;99.90;;;;;;4991603;28;20329;-54
2022/09/10 02:09:42;;;;;;;3.73;1.50;;;15.50;99.90;;;;;;4992860;28;20226;-55
2022/09/10 02:12:18;;;;;;;1.90;1.70;;;15.50;99.90;;;;;;5011759;28;20580;-55
2022/09/10 02:14:55;;;;;;;3.83;2.17;;;15.50;99.90;;;;;;5011615;28;20226;-54
2022/09/10 02:17:37;;;;;;;2.10;1.90;;;15.50;99.90;;;;;;5011017;28;20322;-55
2022/09/10 02:20:09;;;;;;;6.43;1.87;;;15.50;99.90;;;;;;5003416;28;20258;-54
2022/09/10 02:22:42;;;;;;;3.57;2.17;;;15.40;99.90;;;;;;5004120;28;20234;-53
2022/09/10 02:25:11;;;;;;;3.40;1.80;;;15.40;99.90;;;;;;5000811;28;20229;-55
2022/09/10 02:27:39;;;;;;;3.57;2.30;;;15.40;99.90;;;;;;5015760;28;20256;-54
2022/09/10 02:30:10;;;;;;;3.60;1.93;;;15.40;99.90;;;;;;5014654;28;20232;-54
2022/09/10 02:32:38;;;;;;;2.57;1.80;;;15.40;99.90;;;;;;5030587;28;20237;-54
2022/09/10 02:35:07;;;;;;;3.67;1.80;;;15.50;99.90;;;;;;5014179;28;20232;-55
2022/09/10 02:37:36;;;;;;;4.00;2.00;;;15.40;99.90;;;;;;4994656;28;20648;-55
2022/09/10 02:40:05;;;;;;;3.00;2.10;;;15.50;99.90;;;;;;4996052;28;20222;-54
2022/09/10 02:42:33;;;;;;;2.27;1.90;;;15.40;99.90;;;;;;4994618;28;20237;-54
2022/09/10 02:45:02;;;;;;;2.00;1.80;;;15.40;99.90;;;;;;4994930;28;20281;-54
2022/09/10 02:47:32;;;;;;;2.43;1.70;;;15.40;99.90;;;;;;4995729;28;20222;-55
2022/09/10 02:50:01;;;;;;;2.37;2.13;;;15.40;99.90;;;;;;4996119;28;20234;-54
2022/09/10 02:52:29;;;;;;;3.10;1.83;;;15.40;99.90;;;;;;5005255;28;20226;-54
2022/09/10 02:54:57;;;;;;;3.57;2.20;;;15.40;99.90;;;;;;5013558;28;20229;-54
2022/09/10 02:57:25;;;;;;;5.90;2.20;;;15.40;99.90;;;;;;5015521;28;20226;-53
2022/09/10 02:59:55;;;;;;;3.67;1.90;;;15.40;99.90;;;;;;5015407;28;20248;-54
2022/09/10 03:02:24;;;;;;;4.47;2.50;;;15.40;99.90;;;;;;5030280;28;20236;-55
2022/09/10 03:04:55;;;;;;;3.50;2.10;;;15.40;99.90;;;;;;5030483;28;20642;-54
2022/09/10 03:07:25;;;;;;;3.73;2.20;;;15.40;99.90;;;;;;4996706;28;20237;-53
2022/09/10 03:09:53;;;;;;;3.77;2.33;;;15.40;99.90;;;;;;5012905;28;20316;-54
2022/09/10 03:12:21;;;;;;;4.07;2.23;;;15.40;99.90;;;;;;5015116;28;20273;-54
2022/09/10 03:14:49;;;;;;;5.23;2.33;;;15.40;99.90;;;;;;5014976;28;20580;-54
2022/09/10 03:17:17;;;;;;;3.43;2.33;;;15.40;99.90;;;;;;5028884;28;20256;-54
2022/09/10 03:19:47;;;;;;;4.57;2.37;;;15.30;99.90;;;;;;4993876;28;20756;-54
2022/09/10 03:22:16;;;;;;;5.23;2.40;;;15.30;99.90;;;;;;5003155;28;20218;-54
2022/09/10 03:24:45;;;;;;;4.63;2.33;;;15.30;99.90;;;;;;5009635;28;20233;-54
2022/09/10 03:27:15;;;;;;;5.93;2.37;;;15.40;99.90;;;;;;5014822;28;20221;-54
2022/09/10 03:29:44;;;;;;;3.97;2.33;;;15.30;99.90;;;;;;5029861;28;20229;-54
2022/09/10 03:32:14;;;;;;;3.10;2.17;;;15.30;99.90;;;;;;5014617;28;20225;-54
2022/09/10 03:34:43;;;;;;;4.63;2.47;;;15.30;99.90;;;;;;5013262;28;20230;-54
2022/09/10 03:37:11;;;;;;;2.30;2.10;;;15.40;99.90;;;;;;4996014;28;20229;-54
2022/09/10 03:39:40;;;;;;;5.40;2.30;;;15.40;99.90;;;;;;4994715;28;20268;-54
2022/09/10 03:42:09;;;;;;;2.13;1.97;;;15.40;99.90;;;;;;4994911;28;20222;-54
2022/09/10 03:44:38;;;;;;;3.63;2.33;;;15.40;99.90;;;;;;4995677;28;20252;-55
2022/09/10 03:47:06;;;;;;;2.73;2.30;;;15.40;99.90;;;;;;4994550;28;20265;-53
2022/09/10 03:49:34;;;;;;;4.53;2.40;;;15.40;99.90;;;;;;4996618;28;20244;-54
2022/09/10 03:52:03;;;;;;;3.50;2.60;;;15.30;99.90;;;;;;5023545;28;20693;-54
2022/09/10 03:54:36;;;;;;;4.03;2.50;;;15.40;99.90;;;;;;5007639;28;20224;-54
2022/09/10 03:57:06;;;;;;;3.67;2.50;;;15.30;99.90;;;;;;5012738;28;20233;-54
2022/09/10 03:59:34;;;;;;;2.83;2.40;;;15.40;99.90;;;;;;5029301;28;20237;-55
2022/09/10 04:02:02;;;;;;;3.27;2.50;;;15.40;99.90;;;;;;5013763;28;20237;-53
2022/09/10 04:04:31;;;;;;;4.30;2.47;;;15.30;99.90;;;;;;5012662;28;20221;-54
2022/09/10 04:07:00;;;;;;;3.67;2.30;;;15.30;99.90;;;;;;5014025;28;20232;-54
2022/09/10 04:09:28;;;;;;;6.97;2.50;;;15.30;99.90;;;;;;5012870;28;20312;-54
2022/09/10 04:11:58;;;;;;;4.50;2.50;;;15.30;99.90;;;;;;5029213;28;20275;-54
2022/09/10 04:14:30;;;;;;;3.20;2.50;;;15.40;99.90;;;;;;5013804;28;20699;-54
2022/09/10 04:16:58;;;;;;;4.20;2.53;;;15.30;99.90;;;;;;5012619;28;20218;-54
2022/09/10 04:19:27;;;;;;;3.93;2.57;;;15.40;99.90;;;;;;4990135;28;20227;-54
2022/09/10 04:21:56;;;;;;;2.30;2.03;;;15.40;99.90;;;;;;5014978;28;20317;-55
2022/09/10 04:24:25;;;;;;;4.27;2.70;;;15.40;99.90;;;;;;5005756;28;20571;-54
2022/09/10 04:26:53;;;;;;;4.13;2.67;;;15.40;99.90;;;;;;5028968;28;20232;-53
2022/09/10 04:29:22;;;;;;;4.13;2.40;;;15.40;99.90;;;;;;5012419;28;20225;-54
2022/09/10 04:31:53;;;;;;;4.83;2.80;;;15.50;99.90;;;;;;5012066;28;20244;-55
2022/09/10 04:34:21;;;;;;;3.33;2.53;;;15.40;99.90;;;;;;5012365;28;20253;-54
2022/09/10 04:36:50;;;;;;;5.83;2.70;;;15.40;99.90;;;;;;5013403;28;20221;-54
2022/09/10 04:39:18;;;;;;;2.63;2.43;;;15.40;99.90;;;;;;5013735;28;20225;-54
2022/09/10 04:41:49;;;;;;;3.87;2.53;;;15.50;99.90;;;;;;5012140;28;20649;-55
2022/09/10 04:44:19;;;;;;;4.17;2.37;;;15.50;99.90;;;;;;5012003;28;20232;-54
2022/09/10 04:46:47;;;;;;;3.37;2.50;;;15.50;99.90;;;;;;5011952;28;20264;-54
2022/09/10 04:49:17;;;;;;;3.93;2.60;;;15.50;99.90;;;;;;4994372;28;20277;-54
2022/09/10 04:51:45;;;;;;;4.63;2.80;;;15.50;99.90;;;;;;4999506;28;20309;-53
2022/09/10 04:54:14;;;;;;;2.70;2.50;;;15.40;99.90;;;;;;5016452;28;20777;-54
2022/09/10 04:56:46;;;;;;;6.20;2.80;;;15.50;99.90;;;;;;4992251;28;20238;-55
2022/09/10 04:59:14;;;;;;;4.87;3.40;;;15.40;99.90;;;;;;4992395;28;20253;-54
2022/09/10 05:01:44;;;;;;;3.40;2.90;;;15.40;99.90;;;;;;4991716;28;20233;-54
2022/09/10 05:04:12;;;;;;;4.90;2.90;;;15.50;99.90;;;;;;4993477;28;20226;-55
2022/09/10 05:06:43;;;;;;;4.17;2.80;;;15.50;99.90;;;;;;4992128;28;20698;-53
2022/09/10 05:09:11;;;;;;;4.90;3.20;;;15.50;99.90;;;;;;4992234;28;20593;-54
2022/09/10 05:11:40;;;;;;;2.50;2.30;;;15.40;99.90;;;;;;4994544;28;20230;-53
2022/09/10 05:14:09;;;;;;;3.47;2.90;;;15.50;99.90;;;;;;5008547;28;20225;-54
2022/09/10 05:16:37;;;;;;;4.67;2.63;;;15.60;99.90;;;;;;5008376;28;20240;-54
2022/09/10 05:19:06;;;;;;;6.47;3.80;;;15.60;99.90;;;;;;4993412;28;20616;-54
2022/09/10 05:21:43;;;;;;;5.20;4.10;;;15.50;99.90;;;;;;4999162;28;20236;-54
2022/09/10 05:24:11;;;;;;;5.00;3.80;;;15.60;99.90;;;;;;5020092;28;20232;-54
2022/09/10 05:26:40;;;;;;;3.93;3.33;;;15.60;99.90;;;;;;5027323;28;20279;-54
2022/09/10 05:29:10;;;;;;;4.60;3.30;;;15.60;99.90;;;;;;5028140;28;20768;-54
2022/09/10 05:31:39;;;;;;;4.63;3.37;;;15.70;99.90;;;;;;5027480;28;20251;-53
2022/09/10 05:34:09;;;;;;;4.00;3.30;;;15.60;99.90;;;;;;5002381;28;20221;-54
2022/09/10 05:36:40;;;;;;;4.27;3.17;;;15.60;99.90;;;;;;5012264;28;20257;-54
2022/09/10 05:39:09;;;;;;;4.27;3.23;;;15.60;99.90;;;;;;4997348;28;20229;-53
2022/09/10 05:41:38;;;;;;;3.37;2.97;;;15.60;99.90;;;;;;5003169;28;20592;-54
2022/09/10 05:44:07;;;;;;;4.80;3.30;;;15.50;99.90;;;;;;5032123;28;20261;-54
2022/09/10 05:46:36;;;;;;;5.20;3.33;;;15.50;99.90;;;;;;5006583;28;20229;-54
2022/09/10 05:49:11;;;;;;;4.73;3.53;;;15.50;99.90;;;;;;4993905;28;20237;-54
2022/09/10 05:51:40;;;;;;;3.97;3.57;;;15.50;99.90;;;;;;5014487;28;20254;-54
2022/09/10 05:54:11;;;;;;;4.40;3.50;;;15.50;99.90;;;;;;4986515;28;20237;-54
2022/09/10 05:56:40;;;;;;;3.97;3.30;;;15.50;99.90;;;;;;4992492;28;20611;-54
2022/09/10 05:59:10;;;;;;;3.97;3.50;;;15.50;99.90;;;;;;4990510;28;20280;-54
2022/09/10 06:01:44;;;;;;;4.23;3.60;;;15.50;99.90;;;;;;4990426;28;20244;-54
2022/09/10 06:04:13;;;;;;;6.40;3.50;;;15.50;99.90;;;;;;4989795;28;20264;-54
2022/09/10 06:06:41;;;;;;;4.07;3.67;;;15.50;99.90;;;;;;4976814;28;20226;-53
2022/09/10 06:09:13;;;;;;;4.50;3.30;;;15.50;99.90;;;;;;5006025;28;20225;-53
2022/09/10 06:12:02;;;;;;;4.87;3.33;;;15.50;99.90;;;;;;4990348;28;20253;-54
2022/09/10 06:14:31;;;;;;;4.73;3.57;;;15.50;99.90;;;;;;4975538;28;20233;-53
2022/09/10 06:16:59;;;;;;;5.03;4.00;;;15.50;99.90;;;;;;4976055;28;20226;-53
2022/09/10 06:19:29;;;;;;;3.80;3.47;;;15.50;99.90;;;;;;4989208;28;20262;-54
2022/09/10 06:21:57;;;;;;;5.03;3.50;;;15.50;99.90;;;;;;4989924;28;20288;-54
2022/09/10 06:24:28;;;;;;;5.80;4.13;;;15.50;99.90;;;;;;4990164;28;20728;-53
2022/09/10 06:26:58;;;;;;;5.00;3.77;;;15.60;99.90;;;;;;5005841;28;20221;-53
2022/09/10 06:29:29;;;;;;;5.17;3.57;;;15.60;99.90;;;;;;4989279;28;20265;-54
2022/09/10 06:31:59;;;;;;;5.20;4.20;;;15.70;99.90;;;;;;4974266;28;20237;-54
2022/09/10 06:34:27;;;;;;;6.27;4.50;;;15.70;99.90;;;;;;4989730;28;20962;-54
2022/09/10 06:36:57;;;;;;;7.97;4.83;;;15.80;99.90;;;;;;4989090;28;20705;-54
2022/09/10 06:39:28;;;;;;;5.70;5.00;;;15.80;99.90;;;;;;4987675;28;20248;-54
2022/09/10 06:42:00;;;;;;;5.87;4.60;;;15.80;99.90;;;;;;4990300;28;20234;-53
2022/09/10 06:44:51;;;;;;;6.53;4.63;;;15.90;99.90;;;;;;4962451;28;20249;-55
2022/09/10 06:47:37;;;;;;;5.47;4.40;;;15.90;99.90;;;;;;4990254;28;20283;-53
2022/09/10 06:50:26;;;;;;;4.83;3.37;;;15.90;99.90;;;;;;5001283;28;20309;-53
2022/09/10 06:52:57;;;;;;;4.60;4.20;;;16.00;99.90;;;;;;5006499;28;20228;-54
2022/09/10 06:55:27;;;;;;;5.40;4.10;;;16.00;99.90;;;;;;5004981;28;20214;-54
2022/09/10 06:57:55;;;;;;;5.97;4.33;;;16.20;99.90;;;;;;5006310;28;20320;-54
2022/09/10 07:00:23;;;;;;;5.67;4.80;;;16.20;99.90;;;;;;4989273;28;20238;-54
2022/09/10 07:02:54;;;;;;;6.20;4.30;;;16.30;99.90;;;;;;4988967;28;20233;-54
2022/09/10 07:05:23;;;;;;;7.70;4.63;;;16.40;99.90;;;;;;4986509;28;20605;-54
2022/09/10 07:07:53;;;;;;;5.87;4.77;;;16.60;99.90;;;;;;5009591;28;20589;-54
2022/09/10 07:10:21;;;;;;;7.30;4.50;;;16.70;99.90;;;;;;5018996;28;20248;-54
2022/09/10 07:12:51;;;;;;;5.47;4.50;;;16.80;99.90;;;;;;4994377;28;20244;-54
2022/09/10 07:15:21;;;;;;;5.83;5.17;;;17.00;99.90;;;;;;5010157;28;20309;-54
2022/09/10 07:17:50;;;;;;;6.57;5.83;;;17.10;99.90;;;;;;4995430;28;20230;-54
2022/09/10 07:20:22;;;;;;;6.37;4.87;;;17.20;99.90;;;;;;4996223;28;20274;-55
2022/09/10 07:22:51;;;;;;;7.13;5.30;;;17.40;99.90;;;;;;5016949;28;20222;-54
2022/09/10 07:25:20;;;;;;;7.63;5.13;;;17.50;99.90;;;;;;5030137;28;20237;-54
2022/09/10 07:28:17;;;;;;;7.23;4.77;;;17.60;99.90;;;;;;4999210;28;20231;-55
2022/09/10 07:30:48;;;;;;;8.17;5.20;;;17.80;99.90;;;;;;5029558;28;20233;-54
2022/09/10 07:33:17;;;;;;;5.70;5.20;;;17.80;99.90;;;;;;5015033;28;20226;-53
2022/09/10 07:35:45;;;;;;;6.27;4.83;;;17.80;99.90;;;;;;5014224;28;20300;-54
2022/09/10 07:38:16;;;;;;;6.23;4.70;;;17.90;99.90;;;;;;5010097;28;20232;-54
2022/09/10 07:40:47;;;;;;;9.57;5.70;;;17.90;99.90;;;;;;4993644;28;20284;-55
2022/09/10 07:43:17;;;;;;;7.13;5.20;;;18.00;99.90;;;;;;5010090;28;20261;-54
2022/09/10 07:45:45;;;;;;;7.33;5.57;;;18.00;99.90;;;;;;4993614;28;20234;-54
2022/09/10 07:48:13;;;;;;;6.87;5.57;;;18.20;99.90;;;;;;4993309;28;20240;-54
2022/09/10 07:50:42;;;;;;;9.77;5.93;;;18.20;99.90;;;;;;4996611;28;20243;-53
2022/09/10 07:53:10;;;;;;;6.57;5.93;;;18.40;99.90;;;;;;5002787;28;20314;-54
2022/09/10 07:55:38;;;;;;;8.73;5.63;;;18.50;99.90;;;;;;4993622;28;20223;-54
2022/09/10 07:58:07;;;;;;;6.57;5.87;;;18.80;99.90;;;;;;5010926;28;20647;-53
2022/09/10 08:00:38;;;;;;;7.40;6.00;;;19.10;99.90;;;;;;5007892;28;20235;-55
2022/09/10 08:03:11;;;;;;;6.23;5.63;;;19.30;99.90;;;;;;4990905;28;20312;-54
2022/09/10 08:05:39;;;;;;;7.30;6.23;;;19.50;99.90;;;;;;4989789;28;20270;-54
2022/09/10 08:08:09;;;;;;;8.13;7.33;;;19.50;99.90;;;;;;4975093;28;20229;-54
2022/09/10 08:10:37;;;;;;;8.70;7.80;;;19.50;99.90;;;;;;4989833;28;20735;-55
2022/09/10 08:13:06;;;;;;;10.77;9.67;;;19.40;99.90;;;;;;4989875;28;20229;-55
2022/09/10 08:15:34;;;;;;;10.67;9.20;;;19.30;99.90;;;;;;4975035;28;20307;-54
2022/09/10 08:18:04;;;;;;;12.53;10.87;;;19.10;99.90;;;;;;4997180;28;20237;-54
2022/09/10 08:20:33;;;;;;;13.97;12.67;;;19.00;99.90;;;;;;4990991;28;20260;-54
2022/09/10 08:23:02;;;;;;;18.33;14.97;;;19.00;99.90;;;;;;5018997;28;20239;-54
2022/09/10 08:25:32;;;;;;;15.60;14.03;;;18.80;99.90;;;;;;4994030;28;20239;-55
2022/09/10 08:28:00;;;;;;;17.77;16.00;;;18.90;99.90;;;;;;4992888;28;20581;-55
2022/09/10 08:30:31;;;;;;;14.90;13.30;;;18.90;99.90;;;;;;5008660;28;20267;-53
2022/09/10 08:32:59;;;;;;;15.83;14.30;;;18.80;99.90;;;;;;4992752;28;20642;-55
2022/09/10 08:35:28;;;;;;;15.83;14.17;;;18.80;99.90;;;;;;4992678;28;20228;-54
2022/09/10 08:37:56;;;;;;;15.87;14.23;;;18.80;99.90;;;;;;4994203;28;20249;-55
2022/09/10 08:40:25;;;;;;;14.13;12.73;;;18.80;99.90;;;;;;5008927;28;20277;-54
2022/09/10 08:42:53;;;;;;;15.80;14.40;;;18.80;99.90;;;;;;4992556;28;20317;-55
2022/09/10 08:45:27;;;;;;;15.17;13.23;;;18.90;99.90;;;;;;5022241;28;20221;-54
2022/09/10 08:48:01;;;;;;;12.77;11.53;;;19.00;99.90;;;;;;4997740;28;20334;-55
2022/09/10 08:50:38;;;;;;;10.53;9.43;;;19.20;99.90;;;;;;4994412;28;20232;-55
2022/09/10 08:53:24;;;;;;;11.60;10.50;;;19.40;99.90;;;;;;5021508;28;20240;-55
2022/09/10 08:55:56;;;;;;;12.57;11.30;;;20.00;99.90;;;;;;5012004;28;20573;-55
2022/09/10 08:58:28;;;;;;;15.07;13.57;;;20.20;99.90;;;;;;5010078;28;20224;-54
2022/09/10 09:01:02;;;;;;;15.40;13.90;;;20.50;99.90;;;;;;5011680;28;20324;-55
2022/09/10 09:03:35;;;;;;;16.53;14.73;;;20.70;99.90;;;;;;5023185;28;20757;-55
2022/09/10 09:06:08;;;;;;;13.07;11.73;;;20.60;99.90;;;;;;5011254;28;20290;-54
2022/09/10 09:08:47;;;;;;;12.67;11.43;;;20.60;99.90;;;;;;5011803;28;20632;-54
2022/09/10 09:11:27;;;;;;;14.90;13.37;;;20.60;99.90;;;;;;5007868;28;20643;-55
2022/09/10 09:14:06;;;;;;;14.00;12.00;;;20.80;99.90;;;;;;4990393;28;20224;-54
2022/09/10 09:16:58;;;;;;;13.83;12.47;;;20.90;99.90;;;;;;4996586;28;20282;-54
2022/09/10 09:19:32;;;;;;;13.50;12.10;;;20.90;99.90;;;;;;4990611;28;20399;-53
2022/09/10 09:22:15;;;;;;;13.00;11.43;;;21.20;99.90;;;;;;5012303;28;20232;-54
2022/09/10 09:24:57;;;;;;;12.87;11.37;;;21.50;99.90;;;;;;4994811;28;20257;-54
2022/09/10 09:27:29;;;;;;;15.50;12.60;;;21.70;99.90;;;;;;5009607;28;20689;-54
2022/09/10 09:30:02;;;;;;;12.90;11.70;;;21.70;99.90;;;;;;5009489;28;20237;-55
2022/09/10 09:32:37;;;;;;;17.23;12.70;;;21.80;99.90;;;;;;4993666;28;20237;-54
2022/09/10 09:35:16;;;;;;;12.73;11.37;;;21.80;99.90;;;;;;4992994;28;20241;-53
2022/09/10 09:37:47;;;;;;;12.20;10.20;;;21.70;99.90;;;;;;4993326;28;20593;-54
2022/09/10 09:40:29;;;;;;;12.20;10.20;;;21.50;99.90;;;;;;4991886;28;20237;-53
2022/09/10 09:43:02;;;;;;;13.00;11.60;;;21.40;99.90;;;;;;4991973;28;20229;-54
2022/09/10 09:45:36;;;;;;;10.73;9.70;;;21.40;99.90;;;;;;4991491;28;20230;-54
2022/09/10 09:48:06;;;;;;;11.00;9.77;;;21.30;99.90;;;;;;4995122;28;20255;-53
2022/09/10 09:50:40;;;;;;;11.27;10.07;;;21.50;99.90;;;;;;5010105;28;20271;-55
2022/09/10 09:53:16;;;;;;;13.03;11.27;;;22.00;99.90;;;;;;5003470;28;20245;-55
2022/09/10 09:55:47;;;;;;;12.13;9.70;;;22.10;99.90;;;;;;4973462;28;20233;-55
2022/09/10 09:58:33;;;;;;;11.20;9.63;;;22.50;99.90;;;;;;4995297;28;20280;-55
2022/09/10 10:01:21;;;;;;;11.50;8.67;;;23.10;99.90;;;;;;4992631;28;20233;-54
2022/09/10 10:04:00;;;;;;;11.23;9.70;;;23.70;99.90;;;;;;4973690;28;20285;-54
2022/09/10 10:06:31;;;;;;;10.37;9.23;;;23.90;99.90;;;;;;5005204;28;20588;-55
2022/09/10 10:09:03;;;;;;;9.43;7.87;;;24.10;99.90;;;;;;5003274;28;20230;-55
2022/09/10 10:11:45;;;;;;;8.77;7.43;;;24.60;99.90;;;;;;4992798;28;20313;-55
2022/09/10 10:14:38;;;;;;;9.17;7.50;;;24.70;99.90;;;;;;4999078;28;20226;-55
2022/09/10 10:17:37;;;;;;;7.33;6.20;;;24.90;99.90;;;;;;5006381;28;20269;-54
2022/09/10 10:20:13;;;;;;;9.67;7.47;;;24.50;99.90;;;;;;4943912;28;20625;-55
2022/09/10 10:22:42;;;;;;;9.10;7.27;;;24.00;99.90;;;;;;4996766;28;20252;-55
2022/09/10 10:25:37;;;;;;;8.57;6.37;;;23.60;99.90;;;;;;4977063;28;20241;-54
2022/09/10 10:28:14;;;;;;;8.13;6.13;;;23.30;99.90;;;;;;4990772;28;20218;-54
2022/09/10 10:30:43;;;;;;;9.20;7.27;;;23.30;99.90;;;;;;4996175;28;20230;-55
2022/09/10 10:33:19;;;;;;;8.87;6.50;;;23.70;99.90;;;;;;4996413;28;20228;-55
2022/09/10 10:35:55;;;;;;;8.33;6.60;;;24.50;99.90;;;;;;4996099;28;20223;-55
2022/09/10 10:38:29;;;;;;;9.00;5.30;;;25.00;99.90;;;;;;5011066;28;20229;-55
2022/09/10 10:41:25;;;;;;;9.10;7.03;;;25.20;99.90;;;;;;5014413;28;20581;-56
2022/09/10 10:44:08;;;;;;;8.03;4.87;;;24.40;99.90;;;;;;5015892;28;20279;-54
2022/09/10 10:46:48;;;;;;;8.27;7.47;;;24.00;99.90;;;;;;5005265;28;20234;-55
2022/09/10 10:49:27;;;;;;;6.43;4.80;;;23.70;99.90;;;;;;4996732;28;20631;-55
2022/09/10 10:52:08;;;;;;;10.73;5.80;;;23.50;99.90;;;;;;5002669;28;20229;-54
2022/09/10 10:54:49;;;;;;;5.50;4.60;;;23.50;99.90;;;;;;5008504;28;20222;-55
2022/09/10 10:57:30;;;;;;;6.03;4.90;;;23.30;99.90;;;;;;4997696;28;20560;-55
2022/09/10 11:00:03;;;;;;;6.27;5.30;;;23.30;99.90;;;;;;5003584;28;20234;-55
2022/09/10 11:02:40;;;;;;;6.43;3.73;;;23.60;99.90;;;;;;4986291;28;20702;-54
2022/09/10 11:05:20;;;;;;;4.20;3.37;;;24.20;99.90;;;;;;4990103;28;20267;-55
2022/09/10 11:07:48;;;;;;;6.90;4.90;;;24.10;99.90;;;;;;4989489;28;20719;-53
2022/09/10 11:10:23;;;;;;;9.83;8.57;;;23.60;99.90;;;;;;4990659;28;20797;-55
2022/09/10 11:12:57;;;;;;;10.13;7.97;;;23.20;99.90;;;;;;4988678;28;20266;-55
2022/09/10 11:15:32;;;;;;;11.50;10.30;;;23.00;99.90;;;;;;4991490;28;20233;-55
2022/09/10 11:18:07;;;;;;;13.67;12.37;;;22.70;99.90;;;;;;4988333;28;20635;-54
2022/09/10 11:20:41;;;;;;;15.83;14.37;;;22.30;99.90;;;;;;4989321;28;20236;-54
2022/09/10 11:23:29;;;;;;;19.47;15.10;;;21.50;99.90;;;;;;4989399;28;20595;-55
2022/09/10 11:26:03;;;;;;;20.03;14.63;;;20.60;99.90;;;;;;4989211;28;20253;-54
2022/09/10 11:28:38;;;;;;;22.53;16.90;;;20.20;99.90;;;;;;4989382;28;20261;-55
2022/09/10 11:31:15;;;;;;;17.20;15.37;;;19.90;99.90;;;;;;4988902;28;20324;-55
2022/09/10 11:33:52;;;;;;;17.53;15.33;;;19.70;99.90;;;;;;4989324;28;20714;-54
2022/09/10 11:36:26;;;;;;;16.77;15.03;;;19.60;99.90;;;;;;4988756;28;20232;-54
2022/09/10 11:39:07;;;;;;;18.50;16.27;;;19.50;99.90;;;;;;4988209;28;20237;-55
2022/09/10 11:41:41;;;;;;;16.90;15.17;;;19.40;99.90;;;;;;4988650;28;20229;-55
2022/09/10 11:44:34;;;;;;;21.03;18.93;;;19.30;99.90;;;;;;4990129;28;20303;-55
2022/09/10 11:47:13;;;;;;;19.13;17.27;;;19.10;99.90;;;;;;4988593;28;20573;-54
2022/09/10 11:49:48;;;;;;;18.87;17.00;;;18.90;99.90;;;;;;4989359;28;20243;-53
2022/09/10 11:52:18;;;;;;;20.20;18.30;;;18.80;99.90;;;;;;4988272;28;20234;-54
2022/09/10 11:54:46;;;;;;;19.47;17.43;;;18.90;99.90;;;;;;4990773;28;20272;-55
2022/09/10 11:57:27;;;;;;;16.97;15.37;;;18.90;99.90;;;;;;4990065;28;20282;-54
2022/09/10 12:00:14;;;;;;;14.40;13.00;;;18.90;99.90;;;;;;4988960;28;20230;-55
2022/09/10 12:03:19;;;;;;;12.93;11.70;;;19.10;99.90;;;;;;4990226;28;20233;-51
2022/09/10 12:06:01;;;;;;;13.20;11.90;;;19.20;99.90;;;;;;4982461;28;20242;-55
2022/09/10 12:08:46;;;;;;;11.33;10.23;;;19.30;99.90;;;;;;4987024;28;20597;-52
2022/09/10 12:11:23;;;;;;;10.50;9.40;;;19.40;99.90;;;;;;4988779;28;20244;-55
2022/09/10 12:13:52;;;;;;;9.07;8.27;;;19.50;99.90;;;;;;4989166;28;20280;-54
2022/09/10 12:16:30;;;;;;;7.63;6.83;;;19.50;99.90;;;;;;4989020;28;20281;-55
2022/09/10 12:19:01;;;;;;;6.43;5.37;;;19.20;99.90;;;;;;4989818;28;20228;-55
2022/09/10 12:21:34;;;;;;;4.63;4.23;;;19.20;99.90;;;;;;4987670;28;20311;-54
2022/09/10 12:24:06;;;;;;;4.30;3.90;;;19.30;99.90;;;;;;4987691;28;20710;-55
2022/09/10 12:26:42;;;;;;;4.10;3.70;;;19.40;99.90;;;;;;4988810;28;20236;-55
2022/09/10 12:29:28;;;;;;;3.93;3.13;;;19.30;99.90;;;;;;4987865;28;20225;-55
2022/09/10 12:32:35;;;;;;;3.60;3.30;;;19.20;99.90;;;;;;4987655;28;20639;-55
2022/09/10 12:35:45;;;;;;;2.70;2.50;;;19.20;99.90;;;;;;4988357;28;20290;-55
2022/09/10 12:38:50;;;;;;;3.00;2.77;;;19.10;99.90;;;;;;4988354;28;20215;-54
2022/09/10 12:41:59;;;;;;;2.10;1.90;;;19.10;99.90;;;;;;4989005;28;20228;-52
2022/09/10 12:44:46;;;;;;;3.63;2.30;;;19.00;99.90;;;;;;4987354;28;20685;-54
2022/09/10 12:47:43;;;;;;;1.87;1.77;;;19.00;99.90;;;;;;4987120;28;20223;-55
2022/09/10 12:50:35;;;;;;;2.03;1.83;;;19.00;99.90;;;;;;4988376;28;20275;-53
2022/09/10 12:53:40;;;;;;;2.27;1.87;;;19.00;99.90;;;;;;4987420;28;20245;-54
2022/09/10 12:56:44;;;;;;;1.50;1.40;;;19.10;99.90;;;;;;4988077;28;20696;-55
2022/09/10 12:59:35;;;;;;;1.67;1.57;;;19.00;99.90;;;;;;4985654;28;20279;-54
2022/09/10 13:02:25;;;;;;;2.43;1.90;;;19.10;99.90;;;;;;4987724;28;20234;-54
2022/09/10 13:04:57;;;;;;;1.70;1.60;;;19.00;99.90;;;;;;4989818;28;20259;-55
2022/09/10 13:07:32;;;;;;;1.93;1.60;;;18.90;99.90;;;;;;4987733;28;20231;-54
2022/09/10 13:10:04;;;;;;;1.57;1.40;;;18.80;99.90;;;;;;4988876;28;20235;-55
2022/09/10 13:12:36;;;;;;;1.67;1.57;;;18.90;99.90;;;;;;4987022;28;20267;-55
2022/09/10 13:15:07;;;;;;;1.43;1.33;;;18.90;99.90;;;;;;4988361;28;20240;-54
2022/09/10 13:18:21;;;;;;;1.40;1.30;;;18.80;99.90;;;;;;4985943;28;20233;-54